»·PEaware :: DAL591 KBIL-KDEN

DAL591 :: KBIL-KDEN

FLIGHT INFORMATION

Flight Status: Arrived
Operator:
Delta Air Lines
More flights by this operator :: More flights under this callsign
Pilot: Sanjiv S. (4490)
Aircraft: BOEING 737-800
(B738)
More flights by this aircraft type
Origin: KBIL Billings Logan Intl
United States
Destination: KDEN Denver Intl
United States
More flights between these airports :: More routes between these airports
Route: BIL5 GAITZ GRYNS RICCO OPPEE TSHNR2
File this flight plan on PilotEdge
Remarks:
Altitude:
(Current/Filed)
35,000ft
Speed:
(Current/Filed)
440kts
Departed: 30-Mar-18 09:16 AM
Arrived: 30-Mar-18 10:25 AM
Distance/Time
Traveled:
396nm/1:09
Distance/Time
To Go:
Arrived

Flight Plot

Page will automatically refresh every two minutes.

Flight plan parsing failed; only flown route is shown


Map Options




Map Legend


Flown Route
Filed Route
Departure Airport
Arrival Airport
Navaid (VOR, NDB)
Fix

Horizontal Profiles

Position Reports

Time Latitude Longitude Heading Altitude Ground
Speed
30-Mar-18 08:41 45.804353 -108.536916 148 3659ft 0kts
30-Mar-18 08:42 45.804353 -108.536916 148 3659ft 0kts
30-Mar-18 08:43 45.804353 -108.536916 148 3659ft 0kts
30-Mar-18 08:44 45.804353 -108.536916 148 3659ft 0kts
30-Mar-18 08:45 45.804353 -108.536916 148 3659ft 0kts
30-Mar-18 08:46 45.804353 -108.536916 148 3659ft 0kts
30-Mar-18 08:47 45.804353 -108.536916 148 3659ft 0kts
30-Mar-18 08:48 45.804353 -108.536916 148 3659ft 0kts
30-Mar-18 08:49 45.804353 -108.536916 148 3659ft 0kts
30-Mar-18 08:50 45.804353 -108.536916 148 3659ft 0kts
30-Mar-18 08:51 45.804353 -108.536916 148 3659ft 0kts
30-Mar-18 08:52 45.804353 -108.536916 148 3659ft 0kts
30-Mar-18 08:53 45.804353 -108.536916 148 3659ft 0kts
30-Mar-18 08:54 45.804353 -108.536916 148 3659ft 0kts
30-Mar-18 08:55 45.804353 -108.536916 148 3659ft 0kts
30-Mar-18 08:56 45.804353 -108.536916 148 3659ft 0kts
30-Mar-18 08:57 45.804353 -108.536916 148 3659ft 0kts
30-Mar-18 08:58 45.804353 -108.536916 148 3659ft 0kts
30-Mar-18 08:59 45.804353 -108.536916 148 3659ft 0kts
30-Mar-18 09:00 45.804353 -108.536916 148 3659ft 0kts
30-Mar-18 09:01 45.804353 -108.536916 148 3659ft 0kts
30-Mar-18 09:02 45.804398 -108.536971 155 3659ft 2kts
30-Mar-18 09:03 45.804867 -108.537363 134 3659ft 1kts
30-Mar-18 09:04 45.804862 -108.537689 55 3659ft 0kts
30-Mar-18 09:05 45.804862 -108.537689 55 3659ft 0kts
30-Mar-18 09:06 45.804862 -108.537689 55 3659ft 0kts
30-Mar-18 09:07 45.805009 -108.537420 45 3659ft 3kts
30-Mar-18 09:08 45.805411 -108.536866 43 3659ft 3kts
30-Mar-18 09:09 45.804843 -108.533377 103 3659ft 15kts
30-Mar-18 09:10 45.803874 -108.527361 111 3659ft 15kts
30-Mar-18 09:11 45.802157 -108.521277 114 3659ft 16kts
30-Mar-18 09:12 45.801214 -108.517420 62 3659ft 0kts
30-Mar-18 09:13 45.801228 -108.517382 62 3659ft 0kts
30-Mar-18 09:14 45.802317 -108.517531 291 3659ft 2kts
30-Mar-18 09:15 45.807789 -108.537359 289 3664ft 174kts
30-Mar-18 09:16 45.827118 -108.613570 290 6273ft 236kts
30-Mar-18 09:17 45.852301 -108.711227 290 7020ft 275kts
30-Mar-18 09:18 45.882545 -108.813072 311 8159ft 285kts
30-Mar-18 09:19 45.893639 -108.919345 240 11414ft 316kts
30-Mar-18 09:20 45.817213 -108.968708 169 14791ft 335kts
30-Mar-18 09:21 45.744843 -108.891625 131 15017ft 336kts
30-Mar-18 09:22 45.682748 -108.791018 131 15018ft 336kts
30-Mar-18 09:23 45.621028 -108.691331 131 15018ft 336kts
30-Mar-18 09:24 45.558455 -108.590627 131 16670ft 345kts
30-Mar-18 09:25 45.492294 -108.484545 131 19750ft 361kts
30-Mar-18 09:26 45.422025 -108.372319 131 22547ft 377kts
30-Mar-18 09:27 45.354704 -108.265227 132 24855ft 390kts
30-Mar-18 09:28 45.281816 -108.151159 132 27068ft 402kts
30-Mar-18 09:29 45.213346 -108.055346 145 28710ft 415kts
30-Mar-18 09:30 45.131955 -107.979128 146 30549ft 417kts
30-Mar-18 09:31 45.049982 -107.902572 146 32429ft 413kts
30-Mar-18 09:32 45.018194 -107.868678 113 28905ft 268kts
30-Mar-18 09:33 44.963353 -107.829179 165 28361ft 257kts
30-Mar-18 09:34 44.895109 -107.786805 152 28997ft 300kts
30-Mar-18 09:35 44.815218 -107.733912 154 29718ft 337kts
30-Mar-18 09:36 44.722190 -107.670530 153 29974ft 387kts
30-Mar-18 09:37 44.621945 -107.601579 153 30881ft 413kts
30-Mar-18 09:38 44.535868 -107.542179 159 31944ft 426kts
30-Mar-18 09:39 44.423230 -107.464972 158 32120ft 471kts
30-Mar-18 09:40 44.307781 -107.385395 157 33366ft 480kts
30-Mar-18 09:41 44.196432 -107.308489 158 34697ft 480kts
30-Mar-18 09:42 44.076846 -107.225914 158 35011ft 506kts
30-Mar-18 09:43 43.948176 -107.137182 157 35017ft 536kts
30-Mar-18 09:44 43.824343 -107.051694 157 34983ft 540kts
30-Mar-18 09:45 43.686173 -106.995379 173 34980ft 527kts
30-Mar-18 09:46 43.545189 -106.947769 172 35040ft 528kts
30-Mar-18 09:47 43.404684 -106.899362 172 35067ft 529kts
30-Mar-18 09:48 43.262592 -106.850376 172 35069ft 528kts
30-Mar-18 09:49 43.121965 -106.802028 171 35073ft 528kts
30-Mar-18 09:50 42.979194 -106.753128 171 35076ft 529kts
30-Mar-18 09:51 42.842379 -106.706502 171 35060ft 533kts
30-Mar-18 09:52 42.699452 -106.657957 171 35065ft 534kts
30-Mar-18 09:53 42.555403 -106.609248 171 35068ft 533kts
30-Mar-18 09:54 42.409290 -106.560093 171 35070ft 534kts
30-Mar-18 09:55 42.270879 -106.513766 171 35074ft 534kts
30-Mar-18 09:56 42.145352 -106.471887 171 35130ft 533kts
30-Mar-18 09:57 42.031726 -106.434180 171 35208ft 534kts
30-Mar-18 09:58 41.914750 -106.395472 171 35211ft 534kts
30-Mar-18 09:59 41.822185 -106.364941 171 35193ft 534kts
30-Mar-18 10:00 41.766471 -106.346599 172 35191ft 533kts
30-Mar-18 10:01 41.750859 -106.341442 171 35170ft 533kts
30-Mar-18 10:02 41.607198 -106.294001 171 35131ft 534kts
30-Mar-18 10:03 41.463867 -106.246955 171 35134ft 534kts
30-Mar-18 10:04 41.321179 -106.187381 166 35138ft 537kts
30-Mar-18 10:05 41.184364 -106.127937 167 34986ft 495kts
30-Mar-18 10:06 41.056634 -106.064554 160 32479ft 494kts
30-Mar-18 10:07 40.931259 -105.992090 160 29500ft 499kts
30-Mar-18 10:08 40.853867 -105.908121 120 27123ft 501kts
30-Mar-18 10:09 40.777493 -105.757551 121 24525ft 487kts
30-Mar-18 10:10 40.699671 -105.615189 122 22069ft 472kts
30-Mar-18 10:11 40.623317 -105.477067 122 19715ft 459kts
30-Mar-18 10:12 40.551920 -105.347456 122 18305ft 424kts
30-Mar-18 10:13 40.487647 -105.227407 110 16971ft 402kts
30-Mar-18 10:14 40.450202 -105.094218 101 15230ft 392kts
30-Mar-18 10:15 40.394964 -104.973578 137 14042ft 396kts
30-Mar-18 10:16 40.315960 -104.880747 137 13151ft 354kts
30-Mar-18 10:17 40.244238 -104.796694 137 11716ft 345kts
30-Mar-18 10:18 40.170560 -104.719684 161 10262ft 335kts
30-Mar-18 10:19 40.088858 -104.684635 195 8878ft 274kts
30-Mar-18 10:20 40.020505 -104.681356 192 7542ft 242kts
30-Mar-18 10:21 39.972063 -104.679061 208 6778ft 217kts
30-Mar-18 10:22 39.937050 -104.686184 179 6230ft 159kts
30-Mar-18 10:23 39.896848 -104.686829 180 5361ft 147kts
30-Mar-18 10:24 39.877241 -104.686263 153 5327ft 32kts
30-Mar-18 10:25 39.876183 -104.685525 152 5327ft 0kts
30-Mar-18 10:26 39.876183 -104.685525 152 5327ft 0kts
30-Mar-18 10:27 39.876183 -104.685525 152 5327ft 0kts
30-Mar-18 10:28 39.875892 -104.685328 152 5327ft 8kts
30-Mar-18 10:29 39.873575 -104.683764 180 5327ft 12kts
30-Mar-18 10:30 39.869286 -104.683815 180 5327ft 18kts
30-Mar-18 10:31 39.864157 -104.683847 179 5327ft 19kts
30-Mar-18 10:32 39.858901 -104.683959 181 5327ft 18kts
30-Mar-18 10:33 39.855971 -104.682054 90 5327ft 12kts
30-Mar-18 10:34 39.855613 -104.677671 147 5327ft 11kts
30-Mar-18 10:35 39.854334 -104.675992 150 5327ft 0kts
30-Mar-18 10:36 39.854327 -104.675987 150 5327ft 0kts
30-Mar-18 10:37 39.854327 -104.675987 150 5327ft 0kts
30-Mar-18 10:38 39.854327 -104.675987 150 5327ft 0kts

Navigation Log

Ident Type
Flight plan parsing failed, navigation log unavailable